Time;durP1;ratioP1;P1;durP2;ratioP2;P2;SDS_P1;SDS_P2;PMS_P1;PMS_P2;Temp;Humidity;BMP_temperature;BMP_pressure;BME280_temperature;BME280_humidity;BME280_pressure;Samples;Min_cycle;Max_cycle;Signal;HPM_P1;HPM_P2
2023/01/10 00:00:48;;;;;;;1.50;1.00;;;10.30;78.10;;;;;;5105319;28;20845;-71
2023/01/10 00:03:15;;;;;;;2.00;1.67;;;10.40;78.10;;;;;;5075631;28;20451;-72
2023/01/10 00:05:43;;;;;;;2.07;1.63;;;10.40;78.00;;;;;;5080152;28;20541;-71
2023/01/10 00:08:15;;;;;;;2.50;1.70;;;10.50;78.00;;;;;;5094001;28;20839;-70
2023/01/10 00:10:42;;;;;;;2.00;1.50;;;10.50;78.00;;;;;;5080771;28;20451;-73
2023/01/10 00:13:23;;;;;;;3.77;1.70;;;10.50;77.90;;;;;;5088729;28;20780;-71
2023/01/10 00:15:50;;;;;;;2.20;1.50;;;10.60;77.90;;;;;;5072947;28;20427;-72
2023/01/10 00:18:17;;;;;;;3.50;1.80;;;10.60;77.40;;;;;;5073685;28;20444;-72
2023/01/10 00:20:46;;;;;;;2.37;2.13;;;10.60;77.30;;;;;;5075483;28;20455;-72
2023/01/10 00:23:13;;;;;;;2.47;1.73;;;10.50;77.70;;;;;;5090114;28;20446;-72
2023/01/10 00:25:41;;;;;;;3.70;2.20;;;10.40;77.90;;;;;;5073861;28;20491;-72
2023/01/10 00:28:18;;;;;;;2.67;2.30;;;10.30;78.30;;;;;;5072631;28;20439;-72
2023/01/10 00:30:48;;;;;;;3.03;2.30;;;10.30;78.60;;;;;;5074001;28;20505;-72
2023/01/10 00:33:19;;;;;;;3.47;2.10;;;10.20;78.80;;;;;;5073493;28;20550;-71
2023/01/10 00:35:48;;;;;;;2.13;1.53;;;10.30;78.90;;;;;;5073001;28;20431;-72
2023/01/10 00:38:15;;;;;;;2.80;2.30;;;10.10;79.20;;;;;;5073327;28;20446;-72
2023/01/10 00:40:42;;;;;;;2.70;2.47;;;10.10;79.20;;;;;;5074111;28;20533;-72
2023/01/10 00:45:54;;;;;;;2.43;2.10;;;10.00;79.70;;;;;;5072107;28;20550;-71
2023/01/10 00:48:21;;;;;;;4.70;3.80;;;10.00;80.40;;;;;;5072760;28;20527;-72
2023/01/10 00:50:49;;;;;;;5.30;4.37;;;10.00;79.60;;;;;;5077176;28;20455;-72
2023/01/10 00:53:16;;;;;;;2.93;2.53;;;10.00;79.10;;;;;;5088316;28;20975;-72
2023/01/10 00:55:44;;;;;;;4.47;3.27;;;10.00;78.50;;;;;;5073000;28;20443;-72
2023/01/10 00:58:12;;;;;;;3.33;3.00;;;9.90;79.60;;;;;;5101723;28;20466;-72
2023/01/10 01:00:39;;;;;;;5.20;4.13;;;9.80;79.80;;;;;;5103985;28;20448;-72
2023/01/10 01:03:07;;;;;;;3.73;2.60;;;9.80;80.00;;;;;;5074700;28;20451;-72
2023/01/10 01:05:34;;;;;;;3.60;3.00;;;9.80;79.40;;;;;;5092580;28;20451;-72
2023/01/10 01:08:02;;;;;;;2.73;2.40;;;9.90;79.10;;;;;;5092608;28;20777;-72
2023/01/10 01:10:30;;;;;;;2.53;2.03;;;9.90;78.50;;;;;;5090052;28;20818;-72
2023/01/10 01:12:59;;;;;;;3.27;2.67;;;9.80;78.40;;;;;;5073239;28;20460;-72
2023/01/10 01:15:27;;;;;;;2.53;2.10;;;9.80;78.60;;;;;;5092565;28;20457;-72
2023/01/10 01:17:55;;;;;;;5.83;2.20;;;10.00;77.10;;;;;;5092229;28;20780;-72
2023/01/10 01:20:23;;;;;;;2.00;1.80;;;9.90;77.60;;;;;;5090880;28;20465;-72
2023/01/10 01:22:50;;;;;;;3.27;2.43;;;10.00;76.60;;;;;;5071944;28;20458;-72
2023/01/10 01:25:18;;;;;;;5.07;2.43;;;10.00;76.60;;;;;;5072333;28;20447;-73
2023/01/10 01:27:45;;;;;;;4.00;3.20;;;10.10;76.60;;;;;;5072122;28;20479;-73
2023/01/10 01:30:13;;;;;;;3.50;2.60;;;10.10;76.40;;;;;;5071587;28;20538;-73
2023/01/10 01:32:40;;;;;;;5.17;3.63;;;10.10;76.30;;;;;;5072032;28;20538;-72
2023/01/10 01:35:08;;;;;;;2.23;1.50;;;10.10;77.00;;;;;;5071622;28;20451;-72
2023/01/10 01:37:35;;;;;;;1.73;1.17;;;10.00;77.00;;;;;;5073779;28;20452;-72
2023/01/10 01:40:02;;;;;;;1.60;1.50;;;10.10;76.80;;;;;;5071530;28;20781;-72
2023/01/10 01:42:33;;;;;;;4.40;2.90;;;10.10;75.80;;;;;;5076255;28;20459;-72
2023/01/10 01:45:32;;;;;;;2.03;1.70;;;10.10;76.00;;;;;;5071637;28;20442;-72
2023/01/10 01:48:03;;;;;;;4.50;2.10;;;10.10;75.20;;;;;;5071583;28;20474;-72
2023/01/10 01:50:40;;;;;;;1.83;1.10;;;10.20;75.90;;;;;;5074580;28;20459;-72
2023/01/10 01:53:11;;;;;;;3.10;2.10;;;10.10;75.10;;;;;;5075105;28;20474;-72
2023/01/10 01:55:39;;;;;;;3.47;1.20;;;10.00;74.90;;;;;;5073778;28;20933;-72
2023/01/10 01:58:13;;;;;;;3.33;2.70;;;10.00;75.00;;;;;;5098226;28;20466;-72
2023/01/10 02:00:39;;;;;;;4.90;2.50;;;10.00;75.00;;;;;;5109362;28;20470;-73
2023/01/10 02:03:07;;;;;;;4.90;4.17;;;10.00;75.00;;;;;;5088129;28;20545;-72
2023/01/10 02:05:37;;;;;;;3.83;2.63;;;10.00;74.90;;;;;;5091204;28;20451;-71
2023/01/10 02:08:04;;;;;;;3.87;2.57;;;10.10;75.80;;;;;;5091688;28;20555;-72
2023/01/10 02:10:39;;;;;;;3.77;2.47;;;10.20;74.70;;;;;;5090548;28;20464;-72
2023/01/10 02:13:11;;;;;;;2.90;2.07;;;10.30;74.30;;;;;;5087689;28;20443;-71
2023/01/10 02:15:37;;;;;;;6.53;4.67;;;10.20;74.20;;;;;;5090477;28;20793;-72
2023/01/10 02:18:05;;;;;;;4.97;3.17;;;10.10;74.50;;;;;;5091665;28;20525;-72
2023/01/10 02:20:41;;;;;;;4.23;3.27;;;10.20;74.90;;;;;;5084239;28;20463;-72
2023/01/10 02:23:46;;;;;;;5.10;3.97;;;10.10;74.50;;;;;;5075040;28;20776;-73
2023/01/10 02:26:49;;;;;;;2.50;2.00;;;10.20;75.00;;;;;;5071040;28;20450;-70
2023/01/10 02:29:43;;;;;;;7.07;4.37;;;10.10;74.50;;;;;;5071248;28;20443;-71
2023/01/10 02:32:24;;;;;;;7.47;5.17;;;10.20;74.50;;;;;;5075187;28;20436;-71
2023/01/10 02:35:05;;;;;;;3.63;2.87;;;10.20;74.00;;;;;;5072899;28;20510;-72
2023/01/10 02:37:43;;;;;;;3.67;2.60;;;10.10;74.20;;;;;;5091823;28;20427;-72
2023/01/10 02:40:21;;;;;;;4.40;3.03;;;10.10;74.30;;;;;;5090239;28;20437;-72
2023/01/10 02:42:55;;;;;;;3.47;2.53;;;10.10;74.40;;;;;;5089470;28;20479;-72
2023/01/10 02:45:29;;;;;;;2.83;2.10;;;10.20;74.40;;;;;;5090772;28;20439;-72
2023/01/10 02:48:00;;;;;;;3.53;2.50;;;10.20;73.80;;;;;;5091426;28;20518;-72
2023/01/10 02:50:36;;;;;;;4.27;3.47;;;10.20;74.10;;;;;;5088112;28;20470;-72
2023/01/10 02:53:06;;;;;;;2.77;1.63;;;10.20;74.00;;;;;;5072113;28;20482;-72
2023/01/10 02:55:47;;;;;;;7.20;5.97;;;10.20;74.30;;;;;;5075283;28;20428;-72
2023/01/10 02:58:26;;;;;;;3.30;2.27;;;10.30;74.70;;;;;;5103085;28;20461;-72
2023/01/10 03:01:00;;;;;;;2.43;1.90;;;10.20;74.50;;;;;;5107094;28;20932;-71
2023/01/10 03:03:38;;;;;;;2.27;1.57;;;10.30;74.50;;;;;;5094621;28;20525;-73
2023/01/10 03:06:18;;;;;;;1.80;1.40;;;10.30;74.60;;;;;;5094734;28;20434;-73
2023/01/10 03:08:51;;;;;;;2.30;1.50;;;10.20;75.40;;;;;;5095226;28;20466;-71
2023/01/10 03:11:38;;;;;;;1.77;1.30;;;10.20;74.70;;;;;;5054640;28;20446;-71
2023/01/10 03:14:10;;;;;;;3.17;2.47;;;10.20;74.80;;;;;;5094193;28;20437;-71
2023/01/10 03:16:39;;;;;;;2.57;2.10;;;10.20;75.00;;;;;;5094903;28;20435;-72
2023/01/10 03:19:12;;;;;;;2.00;1.30;;;10.10;75.10;;;;;;5089527;28;20448;-72
2023/01/10 03:21:43;;;;;;;1.27;1.17;;;10.00;75.50;;;;;;5082328;28;20445;-73
2023/01/10 03:24:15;;;;;;;3.30;2.40;;;9.90;77.00;;;;;;5074357;28;20428;-72
2023/01/10 03:26:49;;;;;;;3.60;2.30;;;9.90;77.20;;;;;;5057374;28;20432;-72
2023/01/10 03:29:21;;;;;;;5.27;2.90;;;9.80;77.40;;;;;;5073664;28;20765;-72
2023/01/10 03:31:51;;;;;;;3.33;1.97;;;9.80;77.60;;;;;;5087137;28;20443;-72
2023/01/10 03:34:20;;;;;;;3.50;2.63;;;9.80;77.90;;;;;;5094386;28;20448;-72
2023/01/10 03:36:53;;;;;;;4.43;3.00;;;9.70;78.30;;;;;;5094686;28;20458;-72
2023/01/10 03:39:30;;;;;;;2.10;1.60;;;9.60;78.90;;;;;;5094259;28;20510;-72
2023/01/10 03:42:05;;;;;;;6.97;5.20;;;9.60;79.00;;;;;;5075279;28;20450;-73
2023/01/10 03:44:42;;;;;;;6.17;4.10;;;9.50;79.10;;;;;;5074181;28;20514;-72
2023/01/10 03:47:13;;;;;;;4.03;1.83;;;9.50;79.40;;;;;;5073672;28;20521;-71
2023/01/10 03:49:44;;;;;;;1.70;1.50;;;9.40;79.70;;;;;;5074324;28;20452;-73
2023/01/10 03:52:14;;;;;;;3.60;1.53;;;9.40;80.00;;;;;;5076119;28;20476;-73
2023/01/10 03:54:42;;;;;;;4.77;2.20;;;9.40;80.10;;;;;;5094237;28;20438;-72
2023/01/10 03:57:16;;;;;;;2.83;2.07;;;9.50;80.10;;;;;;5098312;28;20440;-74
2023/01/10 03:59:44;;;;;;;6.83;3.10;;;9.50;79.80;;;;;;5114507;28;20468;-73
2023/01/10 04:02:11;;;;;;;2.17;1.50;;;9.50;79.80;;;;;;5082978;28;20987;-72
2023/01/10 04:04:38;;;;;;;3.20;1.70;;;9.50;79.90;;;;;;5082122;28;20537;-71
2023/01/10 04:07:06;;;;;;;4.57;1.73;;;9.60;79.80;;;;;;5093476;28;20449;-72
2023/01/10 04:09:33;;;;;;;2.40;1.30;;;9.80;79.60;;;;;;5093964;28;20464;-72
2023/01/10 04:12:00;;;;;;;4.40;1.70;;;9.90;79.30;;;;;;5076968;28;20947;-72
2023/01/10 04:14:27;;;;;;;5.27;1.70;;;9.90;79.00;;;;;;5091556;28;20442;-72
2023/01/10 04:16:54;;;;;;;4.20;1.70;;;9.90;79.20;;;;;;5093967;28;20442;-72
2023/01/10 04:19:21;;;;;;;4.90;1.60;;;9.90;79.00;;;;;;5092803;28;20949;-72
2023/01/10 04:21:48;;;;;;;5.93;2.70;;;9.90;79.00;;;;;;5080211;28;20455;-72
2023/01/10 04:24:16;;;;;;;2.87;2.23;;;9.80;79.00;;;;;;5089067;28;20447;-72
2023/01/10 04:26:43;;;;;;;5.27;2.53;;;9.80;79.50;;;;;;5093016;28;20450;-72
2023/01/10 04:29:11;;;;;;;5.77;2.80;;;9.80;79.40;;;;;;5093032;28;20479;-72
2023/01/10 04:31:38;;;;;;;6.77;2.33;;;9.70;79.10;;;;;;5081536;28;20451;-72
2023/01/10 04:34:05;;;;;;;7.73;4.07;;;9.70;79.10;;;;;;5087171;28;20465;-72
2023/01/10 04:36:32;;;;;;;3.77;2.70;;;9.60;79.10;;;;;;5078025;28;20447;-72
2023/01/10 04:38:59;;;;;;;9.37;4.27;;;9.60;79.20;;;;;;5072924;28;20446;-72
2023/01/10 04:41:27;;;;;;;6.67;2.50;;;9.50;79.40;;;;;;5073913;28;20444;-72
2023/01/10 04:43:54;;;;;;;10.27;5.27;;;9.60;79.30;;;;;;5086333;28;20450;-73
2023/01/10 04:46:21;;;;;;;6.00;3.40;;;9.70;79.10;;;;;;5092577;28;20935;-72
2023/01/10 04:48:48;;;;;;;15.53;6.87;;;9.70;78.60;;;;;;5093385;28;20473;-72
2023/01/10 04:51:15;;;;;;;8.57;3.13;;;9.70;78.50;;;;;;5091953;28;20482;-73
2023/01/10 04:53:41;;;;;;;8.30;3.00;;;9.80;78.40;;;;;;5080798;28;20440;-73
2023/01/10 04:56:13;;;;;;;13.00;2.93;;;9.80;78.20;;;;;;5072059;28;20469;-70
2023/01/10 04:58:41;;;;;;;10.17;2.83;;;9.90;77.60;;;;;;5108532;28;20464;-71
2023/01/10 05:01:10;;;;;;;10.33;3.20;;;10.00;76.40;;;;;;5100677;28;20455;-72
2023/01/10 05:03:37;;;;;;;9.03;3.80;;;10.00;75.70;;;;;;5081697;28;20448;-73
2023/01/10 05:06:05;;;;;;;11.80;3.47;;;10.00;75.90;;;;;;5072157;28;20451;-72
2023/01/10 05:08:32;;;;;;;7.77;3.30;;;10.00;75.70;;;;;;5072394;28;20475;-72
2023/01/10 05:11:01;;;;;;;7.30;2.53;;;10.00;75.80;;;;;;5081229;28;20458;-72
2023/01/10 05:13:28;;;;;;;7.37;3.07;;;10.10;75.70;;;;;;5089256;28;20457;-72
2023/01/10 05:15:57;;;;;;;9.13;2.87;;;10.10;75.20;;;;;;5091993;28;20541;-72
2023/01/10 05:18:24;;;;;;;8.80;2.67;;;10.10;75.20;;;;;;5092403;28;20795;-72
2023/01/10 05:20:51;;;;;;;11.00;3.00;;;10.10;75.00;;;;;;5084434;28;20459;-72
2023/01/10 05:23:18;;;;;;;9.37;2.87;;;10.10;75.00;;;;;;5075489;28;20447;-72
2023/01/10 05:25:45;;;;;;;9.07;3.43;;;10.10;75.10;;;;;;5078490;28;20465;-73
2023/01/10 05:28:12;;;;;;;8.43;2.77;;;10.20;74.70;;;;;;5071744;28;20484;-73
2023/01/10 05:30:39;;;;;;;5.87;2.80;;;10.20;74.40;;;;;;5077798;28;20458;-72
2023/01/10 05:33:08;;;;;;;11.57;3.00;;;10.20;74.30;;;;;;5084989;28;20443;-72
2023/01/10 05:35:34;;;;;;;8.73;3.47;;;10.20;74.30;;;;;;5084921;28;20931;-72
2023/01/10 05:38:01;;;;;;;9.10;2.40;;;10.10;74.10;;;;;;5092544;28;20438;-72
2023/01/10 05:40:28;;;;;;;8.33;2.40;;;10.10;73.90;;;;;;5090623;28;20454;-72
2023/01/10 05:42:55;;;;;;;12.73;3.17;;;10.10;74.10;;;;;;5087435;28;20458;-72
2023/01/10 05:45:22;;;;;;;10.43;2.80;;;10.20;73.90;;;;;;5071629;28;20448;-72
2023/01/10 05:47:49;;;;;;;8.57;2.90;;;10.20;73.30;;;;;;5054568;28;20479;-72
2023/01/10 05:50:18;;;;;;;8.70;2.17;;;10.10;73.50;;;;;;5073325;28;20550;-72
2023/01/10 05:52:46;;;;;;;5.83;2.60;;;10.20;73.60;;;;;;5088873;28;20478;-72
2023/01/10 05:55:13;;;;;;;6.50;2.93;;;10.20;73.60;;;;;;5071553;28;20521;-73
2023/01/10 05:57:40;;;;;;;11.10;3.00;;;10.10;73.50;;;;;;5090475;28;20452;-72
2023/01/10 06:00:08;;;;;;;8.33;3.20;;;10.10;73.50;;;;;;5090968;28;20446;-73
2023/01/10 06:02:35;;;;;;;8.77;2.50;;;10.20;73.40;;;;;;5083057;28;20504;-73
2023/01/10 06:05:02;;;;;;;8.43;3.00;;;10.20;74.10;;;;;;5071952;28;20789;-71
2023/01/10 06:07:31;;;;;;;8.83;4.40;;;10.20;73.70;;;;;;5071454;28;20490;-71
2023/01/10 06:09:57;;;;;;;12.23;5.23;;;10.20;73.50;;;;;;5071974;28;20455;-71
2023/01/10 06:12:24;;;;;;;15.10;3.20;;;10.20;73.60;;;;;;5071878;28;20459;-72
2023/01/10 06:14:51;;;;;;;7.97;2.97;;;10.20;73.50;;;;;;5080021;28;20451;-72
2023/01/10 06:17:18;;;;;;;7.13;2.50;;;10.30;73.60;;;;;;5091195;28;20450;-72
2023/01/10 06:19:45;;;;;;;9.23;2.60;;;10.40;73.00;;;;;;5090148;28;20442;-72
2023/01/10 06:22:12;;;;;;;6.57;2.20;;;10.40;72.90;;;;;;5091279;28;20799;-72
2023/01/10 06:24:41;;;;;;;8.93;2.60;;;10.50;72.90;;;;;;5073846;28;20458;-72
2023/01/10 06:27:08;;;;;;;5.37;2.47;;;10.50;72.90;;;;;;5071193;28;20641;-72
2023/01/10 06:29:35;;;;;;;9.00;2.97;;;10.60;72.50;;;;;;5075454;28;21010;-72
2023/01/10 06:32:02;;;;;;;9.03;3.50;;;10.40;72.50;;;;;;5076263;28;20447;-72
2023/01/10 06:34:29;;;;;;;7.73;2.67;;;10.40;72.60;;;;;;5089014;28;20450;-72
2023/01/10 06:36:56;;;;;;;7.87;3.00;;;10.40;72.80;;;;;;5095295;28;20958;-72
2023/01/10 06:39:22;;;;;;;9.10;2.80;;;10.40;72.70;;;;;;5095192;28;20445;-72
2023/01/10 06:41:51;;;;;;;5.50;2.60;;;10.30;72.70;;;;;;5095616;28;20472;-72
2023/01/10 06:44:17;;;;;;;7.50;2.40;;;10.30;72.70;;;;;;5081340;28;20505;-72
2023/01/10 06:46:44;;;;;;;7.33;3.17;;;10.40;72.70;;;;;;5078527;28;20549;-70
2023/01/10 06:49:11;;;;;;;8.87;3.00;;;10.30;72.70;;;;;;5081202;28;20490;-71
2023/01/10 06:51:39;;;;;;;7.77;2.90;;;10.30;72.70;;;;;;5073704;28;20894;-73
2023/01/10 06:54:07;;;;;;;7.13;3.50;;;10.30;72.70;;;;;;5086265;28;20450;-72
2023/01/10 06:56:33;;;;;;;9.97;3.27;;;10.30;72.90;;;;;;5087938;28;20555;-73
2023/01/10 06:59:02;;;;;;;8.07;2.77;;;10.40;72.80;;;;;;5093051;28;20465;-72
2023/01/10 07:01:29;;;;;;;8.20;2.63;;;10.50;72.60;;;;;;5077538;28;20571;-73
2023/01/10 07:03:56;;;;;;;11.37;2.80;;;10.60;72.40;;;;;;5083352;28;20867;-73
2023/01/10 07:06:22;;;;;;;7.87;2.50;;;10.70;72.20;;;;;;5088125;28;20525;-73
2023/01/10 07:08:49;;;;;;;8.77;2.77;;;10.70;71.70;;;;;;5095108;28;20481;-72
2023/01/10 07:11:17;;;;;;;11.30;2.70;;;10.70;71.50;;;;;;5094598;28;20500;-73
2023/01/10 07:13:44;;;;;;;8.03;3.03;;;10.70;71.50;;;;;;5073613;28;20508;-73
2023/01/10 07:16:14;;;;;;;8.50;3.50;;;10.60;71.40;;;;;;5088673;28;20760;-72
2023/01/10 07:18:42;;;;;;;6.90;2.57;;;10.50;71.90;;;;;;5080336;28;20446;-74
2023/01/10 07:21:10;;;;;;;8.77;3.20;;;10.40;73.10;;;;;;5091132;28;20449;-74
2023/01/10 07:23:37;;;;;;;7.90;2.97;;;10.30;72.70;;;;;;5082909;28;20457;-73
2023/01/10 07:26:07;;;;;;;7.37;3.17;;;10.20;72.90;;;;;;5074742;28;20931;-73
2023/01/10 07:28:34;;;;;;;6.57;3.37;;;10.20;73.10;;;;;;5074537;28;21097;-73
2023/01/10 07:31:02;;;;;;;8.33;2.83;;;10.20;73.30;;;;;;5082004;28;20557;-74
2023/01/10 07:33:31;;;;;;;9.00;3.57;;;10.20;73.30;;;;;;5086004;28;20553;-73
2023/01/10 07:35:58;;;;;;;10.83;4.10;;;10.20;73.40;;;;;;5083556;28;20533;-74
2023/01/10 07:38:25;;;;;;;10.37;3.50;;;10.20;73.50;;;;;;5093339;28;20447;-73
2023/01/10 07:40:52;;;;;;;11.60;3.93;;;10.20;73.50;;;;;;5077731;28;20450;-72
2023/01/10 07:43:19;;;;;;;9.27;3.47;;;10.20;73.40;;;;;;5073990;28;20450;-72
2023/01/10 07:45:48;;;;;;;10.57;3.60;;;10.10;73.50;;;;;;5074081;28;20443;-73
2023/01/10 07:48:15;;;;;;;9.30;3.63;;;10.00;73.70;;;;;;5073246;28;20463;-74
2023/01/10 07:50:43;;;;;;;9.63;3.60;;;10.10;73.50;;;;;;5073656;28;20534;-73
2023/01/10 07:53:10;;;;;;;7.30;3.17;;;10.00;73.40;;;;;;5076708;28;20553;-73
2023/01/10 07:55:38;;;;;;;11.03;3.83;;;10.10;73.60;;;;;;5094129;28;20455;-73
2023/01/10 07:58:07;;;;;;;9.40;3.90;;;10.10;73.30;;;;;;5093962;28;20477;-73
2023/01/10 08:00:35;;;;;;;8.23;3.17;;;10.00;73.50;;;;;;5093611;28;20454;-73
2023/01/10 08:03:02;;;;;;;7.93;3.50;;;10.00;73.80;;;;;;5091971;28;20446;-73
2023/01/10 08:05:28;;;;;;;10.77;4.40;;;10.00;73.60;;;;;;5075677;28;20534;-72
2023/01/10 08:07:58;;;;;;;11.83;3.60;;;10.10;73.70;;;;;;5074099;28;20531;-73
2023/01/10 08:10:26;;;;;;;11.27;4.23;;;10.20;73.60;;;;;;5073087;28;20998;-73
2023/01/10 08:12:54;;;;;;;9.60;3.60;;;10.20;73.60;;;;;;5073750;28;20534;-73
2023/01/10 08:15:20;;;;;;;6.57;2.83;;;10.10;73.70;;;;;;5093421;28;20442;-74
2023/01/10 08:17:47;;;;;;;7.83;2.83;;;10.10;73.80;;;;;;5093568;28;20446;-74
2023/01/10 08:20:14;;;;;;;8.63;2.80;;;10.10;73.60;;;;;;5093214;28;20537;-72
2023/01/10 08:22:41;;;;;;;9.23;2.80;;;10.10;73.80;;;;;;5093993;28;20446;-73
2023/01/10 08:25:10;;;;;;;8.43;3.00;;;10.00;73.80;;;;;;5084822;28;20482;-73
2023/01/10 08:27:38;;;;;;;9.63;3.17;;;10.00;74.00;;;;;;5093664;28;20478;-74
2023/01/10 08:30:06;;;;;;;5.90;3.03;;;10.00;74.00;;;;;;5093080;28;20486;-73
2023/01/10 08:32:32;;;;;;;10.37;4.00;;;10.10;74.10;;;;;;5093079;28;20550;-74
2023/01/10 08:35:02;;;;;;;7.80;3.90;;;10.10;73.70;;;;;;5075551;28;20451;-73
2023/01/10 08:37:32;;;;;;;7.83;3.10;;;10.10;73.80;;;;;;5072970;28;20529;-73
2023/01/10 08:39:59;;;;;;;10.00;3.33;;;10.10;73.80;;;;;;5073253;28;20497;-72
2023/01/10 08:42:27;;;;;;;8.93;4.70;;;10.10;73.60;;;;;;5072357;28;20490;-73
2023/01/10 08:44:54;;;;;;;7.93;3.03;;;10.10;73.80;;;;;;5089108;28;20537;-73
2023/01/10 08:47:21;;;;;;;5.83;2.90;;;10.20;73.60;;;;;;5092230;28;20549;-74
2023/01/10 08:49:49;;;;;;;10.00;3.17;;;10.10;72.90;;;;;;5092736;28;20506;-73
2023/01/10 08:52:16;;;;;;;7.00;2.97;;;10.20;73.10;;;;;;5091980;28;20493;-74
2023/01/10 08:54:43;;;;;;;11.07;3.13;;;10.10;72.80;;;;;;5092543;28;20776;-73
2023/01/10 08:57:10;;;;;;;6.13;2.67;;;10.10;73.20;;;;;;5098089;28;20480;-73
2023/01/10 08:59:39;;;;;;;9.83;3.40;;;10.30;73.10;;;;;;5112673;28;20461;-73
2023/01/10 09:02:11;;;;;;;8.10;2.63;;;10.40;72.80;;;;;;5112955;28;20457;-73
2023/01/10 09:04:38;;;;;;;8.73;3.80;;;10.40;72.60;;;;;;5098616;28;20443;-74
2023/01/10 09:07:05;;;;;;;9.97;2.60;;;10.40;72.40;;;;;;5092870;28;20858;-73
2023/01/10 09:09:32;;;;;;;12.13;3.90;;;10.50;72.20;;;;;;5091276;28;20569;-73
2023/01/10 09:11:59;;;;;;;9.90;2.63;;;10.60;71.90;;;;;;5087568;28;20539;-73
2023/01/10 09:14:26;;;;;;;11.03;3.53;;;10.60;71.70;;;;;;5071256;28;20505;-74
2023/01/10 09:16:54;;;;;;;8.53;3.30;;;10.50;71.60;;;;;;5072497;28;20472;-73
2023/01/10 09:19:21;;;;;;;7.23;2.80;;;10.50;71.70;;;;;;5078794;28;20506;-74
2023/01/10 09:21:48;;;;;;;6.77;2.60;;;10.60;71.60;;;;;;5092762;28;20529;-74
2023/01/10 09:24:15;;;;;;;7.07;2.83;;;10.70;71.50;;;;;;5092108;28;20529;-75
2023/01/10 09:26:41;;;;;;;7.93;2.90;;;10.80;71.30;;;;;;5092895;28;20442;-74
2023/01/10 09:29:08;;;;;;;7.73;3.13;;;10.80;71.00;;;;;;5087428;28;20477;-74
2023/01/10 09:31:35;;;;;;;7.53;3.00;;;10.80;71.10;;;;;;5071980;28;20546;-74
2023/01/10 09:34:03;;;;;;;9.97;3.00;;;10.80;71.70;;;;;;5072322;28;20447;-72
2023/01/10 09:36:31;;;;;;;9.90;3.30;;;10.90;71.80;;;;;;5071388;28;20940;-73
2023/01/10 09:38:57;;;;;;;10.77;3.17;;;10.90;71.50;;;;;;5075056;28;20793;-74
2023/01/10 09:41:52;;;;;;;5.10;2.60;;;10.90;71.50;;;;;;5091891;28;20929;-74
2023/01/10 09:44:25;;;;;;;8.00;2.60;;;11.00;71.70;;;;;;5090628;28;20775;-74
2023/01/10 09:46:59;;;;;;;6.17;2.90;;;11.00;71.60;;;;;;5092508;28;20521;-74
2023/01/10 09:49:44;;;;;;;9.10;2.63;;;10.90;71.70;;;;;;5085161;28;20570;-74
2023/01/10 09:52:20;;;;;;;6.13;2.47;;;10.90;72.50;;;;;;5072025;28;20485;-74
2023/01/10 09:54:50;;;;;;;6.00;2.00;;;10.90;71.30;;;;;;5071999;28;20434;-74
2023/01/10 09:57:20;;;;;;;8.70;2.73;;;10.90;71.50;;;;;;5066399;28;20448;-74
2023/01/10 09:59:49;;;;;;;7.37;2.73;;;11.00;71.60;;;;;;5094792;28;20466;-74
2023/01/10 10:02:27;;;;;;;7.13;2.73;;;11.00;70.90;;;;;;5093391;28;20459;-74
2023/01/10 10:05:09;;;;;;;8.13;2.87;;;10.70;70.90;;;;;;5096438;28;20434;-73
2023/01/10 10:07:36;;;;;;;8.10;3.27;;;10.60;71.10;;;;;;5096070;28;20465;-74
2023/01/10 10:10:05;;;;;;;5.63;2.43;;;10.50;71.80;;;;;;5095599;28;20474;-74
2023/01/10 10:12:41;;;;;;;6.77;2.60;;;10.60;72.10;;;;;;5095548;28;20447;-74
2023/01/10 10:15:22;;;;;;;7.17;2.30;;;10.80;72.40;;;;;;5096201;28;20440;-74
2023/01/10 10:17:59;;;;;;;8.47;2.67;;;10.90;71.00;;;;;;5096622;28;20804;-74
2023/01/10 10:20:39;;;;;;;5.80;2.50;;;11.00;71.20;;;;;;5074991;28;20439;-73
2023/01/10 10:23:21;;;;;;;8.07;2.90;;;11.10;70.10;;;;;;5075937;28;20531;-72
2023/01/10 10:26:00;;;;;;;7.20;2.40;;;11.20;70.00;;;;;;5075851;28;20474;-73
2023/01/10 10:28:57;;;;;;;8.17;2.63;;;11.20;70.10;;;;;;5074805;28;20515;-72
2023/01/10 10:31:38;;;;;;;5.97;2.93;;;11.20;69.10;;;;;;5074665;28;20455;-74
2023/01/10 10:34:12;;;;;;;5.43;2.30;;;11.00;69.80;;;;;;5075889;28;20427;-73
2023/01/10 10:36:45;;;;;;;4.70;2.30;;;11.00;69.50;;;;;;5075241;28;20537;-73
2023/01/10 10:39:17;;;;;;;8.80;3.30;;;10.90;70.30;;;;;;5075025;28;20517;-73
2023/01/10 10:41:46;;;;;;;8.30;3.27;;;10.90;69.80;;;;;;5057598;28;20442;-73
2023/01/10 10:44:29;;;;;;;9.03;2.57;;;10.80;69.50;;;;;;5075302;28;20443;-74
2023/01/10 10:46:58;;;;;;;12.70;3.87;;;10.80;70.30;;;;;;5075644;28;20921;-74
2023/01/10 10:49:36;;;;;;;8.93;2.67;;;10.80;70.00;;;;;;5074701;28;20490;-75
2023/01/10 10:52:12;;;;;;;7.47;2.67;;;10.80;69.40;;;;;;5075230;28;20487;-73
2023/01/10 10:54:39;;;;;;;8.07;2.47;;;10.70;69.40;;;;;;5074761;28;20438;-75
2023/01/10 10:57:08;;;;;;;6.70;2.77;;;10.80;70.00;;;;;;5075008;28;20443;-74
2023/01/10 10:59:35;;;;;;;6.27;2.53;;;10.80;69.80;;;;;;5074264;28;20525;-74
2023/01/10 11:02:02;;;;;;;7.83;2.70;;;11.00;69.40;;;;;;5075038;28;20551;-74
2023/01/10 11:04:31;;;;;;;9.30;3.70;;;11.00;68.90;;;;;;5074531;28;20462;-74
2023/01/10 11:06:58;;;;;;;5.93;2.43;;;11.00;68.40;;;;;;5075125;28;20534;-74
2023/01/10 11:09:31;;;;;;;7.17;2.43;;;11.00;68.30;;;;;;5074067;28;20483;-74
2023/01/10 11:11:58;;;;;;;10.20;2.80;;;11.10;68.30;;;;;;5074804;28;20439;-74
2023/01/10 11:14:43;;;;;;;7.17;2.50;;;11.00;68.60;;;;;;5073321;28;20447;-73
2023/01/10 11:17:22;;;;;;;6.67;2.23;;;11.00;69.10;;;;;;5075029;28;20795;-73
2023/01/10 11:19:57;;;;;;;8.37;2.63;;;11.20;68.60;;;;;;5066469;28;20501;-73
2023/01/10 11:22:25;;;;;;;6.87;2.77;;;11.30;67.80;;;;;;5073994;28;20927;-73
2023/01/10 11:24:56;;;;;;;6.37;2.33;;;11.30;66.90;;;;;;5074160;28;20443;-73
2023/01/10 11:27:26;;;;;;;9.07;2.80;;;11.40;66.90;;;;;;5074473;28;20510;-74
2023/01/10 11:29:57;;;;;;;7.27;2.60;;;11.50;67.10;;;;;;5074447;28;20483;-74
2023/01/10 11:32:33;;;;;;;6.37;3.17;;;11.60;66.40;;;;;;5073848;28;20846;-72
2023/01/10 11:35:02;;;;;;;7.80;3.27;;;11.70;65.50;;;;;;5074503;28;20485;-74
2023/01/10 11:37:31;;;;;;;4.90;2.73;;;11.60;65.40;;;;;;5074221;28;20497;-74
2023/01/10 11:40:22;;;;;;;5.70;2.07;;;11.80;65.90;;;;;;5073976;28;20452;-74
2023/01/10 11:42:50;;;;;;;8.30;3.30;;;12.10;64.70;;;;;;5074321;28;20440;-74
2023/01/10 11:45:30;;;;;;;6.00;2.40;;;12.30;64.50;;;;;;5074273;28;20486;-74
2023/01/10 11:48:05;;;;;;;9.27;2.67;;;12.20;62.90;;;;;;5074232;28;20444;-74
2023/01/10 11:50:36;;;;;;;7.33;2.70;;;12.20;63.00;;;;;;5073072;28;20558;-74
2023/01/10 11:53:05;;;;;;;6.03;2.37;;;12.30;62.50;;;;;;5073777;28;20869;-75
2023/01/10 11:55:36;;;;;;;7.63;2.80;;;12.40;63.10;;;;;;5073435;28;20826;-74
2023/01/10 11:58:06;;;;;;;12.23;4.40;;;12.80;62.30;;;;;;5099144;28;20823;-74
2023/01/10 12:00:37;;;;;;;13.50;4.87;;;12.80;61.00;;;;;;5079183;28;20463;-72
2023/01/10 12:03:16;;;;;;;9.53;3.30;;;12.80;61.30;;;;;;5073979;28;20489;-75
2023/01/10 12:05:53;;;;;;;10.47;3.47;;;13.00;61.40;;;;;;5073540;28;20459;-74
2023/01/10 12:08:29;;;;;;;19.10;6.17;;;13.10;60.10;;;;;;5073420;28;20435;-74
2023/01/10 12:11:01;;;;;;;11.63;3.73;;;13.20;59.90;;;;;;5072948;28;20467;-74
2023/01/10 12:13:29;;;;;;;15.60;5.27;;;13.20;59.40;;;;;;5073261;28;20431;-74
2023/01/10 12:16:16;;;;;;;8.17;4.17;;;12.80;59.10;;;;;;5073873;28;20768;-74
2023/01/10 12:18:43;;;;;;;7.43;2.60;;;12.60;60.00;;;;;;5073180;28;20555;-74
2023/01/10 12:21:13;;;;;;;19.17;8.80;;;12.50;60.80;;;;;;5073327;28;20448;-74
2023/01/10 12:23:43;;;;;;;30.97;11.33;;;12.70;60.80;;;;;;5072415;28;20453;-73
2023/01/10 12:26:13;;;;;;;12.67;5.73;;;13.00;60.00;;;;;;5073556;28;20453;-74
2023/01/10 12:28:43;;;;;;;15.63;5.30;;;13.40;59.10;;;;;;5072871;28;20457;-74
2023/01/10 12:31:14;;;;;;;13.50;5.60;;;13.40;58.90;;;;;;5073292;28;20532;-74
2023/01/10 12:33:46;;;;;;;7.83;4.27;;;13.60;58.40;;;;;;5073010;28;20436;-74
2023/01/10 12:36:26;;;;;;;5.57;3.57;;;13.80;58.20;;;;;;5073070;28;20435;-74
2023/01/10 12:39:03;;;;;;;4.03;2.20;;;14.50;56.80;;;;;;5072918;28;20910;-74
2023/01/10 12:44:32;;;;;;;6.03;2.83;;;14.90;54.00;;;;;;5077377;28;20406;-73
2023/01/10 12:47:07;;;;;;;7.50;3.43;;;15.20;53.80;;;;;;5093244;28;20443;-74
2023/01/10 12:49:39;;;;;;;7.00;2.20;;;16.90;52.40;;;;;;5092807;28;20466;-74
2023/01/10 12:52:14;;;;;;;5.53;2.93;;;18.40;49.30;;;;;;5082794;28;20538;-75
2023/01/10 12:54:41;;;;;;;5.37;2.00;;;19.40;47.60;;;;;;5072086;28;20653;-75
2023/01/10 12:57:22;;;;;;;7.67;3.07;;;19.80;46.10;;;;;;5082741;28;20223;-75
2023/01/10 12:59:51;;;;;;;5.80;2.90;;;20.30;45.10;;;;;;5087057;28;20260;-74
2023/01/10 13:02:22;;;;;;;6.87;3.50;;;20.50;44.60;;;;;;5072989;28;20292;-75
2023/01/10 13:04:55;;;;;;;6.23;3.20;;;19.40;42.90;;;;;;5021256;28;20254;-75
2023/01/10 13:07:35;;;;;;;4.93;2.27;;;18.60;44.80;;;;;;5072386;28;20196;-75
2023/01/10 13:10:04;;;;;;;6.50;2.70;;;17.90;45.40;;;;;;5072575;28;20217;-75